< Cyclone 197414 1974 Season Cyclone 197416 >
Cyclone 197415 (ZOE)
General InformationTrack Information on Google Maps || ResourceGoogle EarthGE AnimationAtom FeedGeoJSON
Detalied Best Track (Time Zone = UTC)
Year Month Day Hour Lat. Long. Pressure (hPa) Wind (kt) Class Image Chart
1974 3 6 08 -18.8 154.5 991 0 0 -- --
1974 3 6 11 -18.9 154.7 990 0 0 -- --
1974 3 6 23 -19.7 155.7 984 0 0 -- --
1974 3 7 11 -20.7 156.4 980 0 0 -- --
1974 3 7 17 -20.9 156.5 978 0 0 -- --
1974 3 7 23 -21.1 156.4 976 0 0 -- --
1974 3 8 11 -21.3 156.3 971 0 0 -- --
1974 3 8 23 -21.4 156.1 968 0 0 -- --
1974 3 9 11 -21.5 155.9 968 0 0 -- --
1974 3 9 23 -21.6 155.6 974 0 0 -- --
1974 3 10 11 -21.9 155.0 978 0 0 -- --
1974 3 10 17 -22.3 154.6 981 0 0 -- --
1974 3 10 23 -22.7 154.4 982 0 0 -- --
1974 3 11 11 -24.2 154.4 982 0 0 -- --
1974 3 11 14 -24.7 154.4 982 0 0 -- --
1974 3 11 17 -25.2 154.2 982 0 0 -- --
1974 3 11 23 -26.0 153.5 982 0 0 -- --
1974 3 12 02 -26.3 153.4 982 0 0 -- --
1974 3 12 05 -26.6 153.4 982 0 0 -- --
1974 3 12 11 -27.1 153.7 983 0 0 -- --
1974 3 12 14 -27.5 153.8 983 0 0 -- --
1974 3 12 23 -28.7 153.4 986 0 0 -- --
1974 3 13 00 -28.8 153.5 986 0 0 -- --
1974 3 13 11 -30.1 154.8 992 0 0 -- --
1974 3 13 17 -31.0 155.9 994 0 0 -- --
1974 3 13 23 -31.5 157.4 995 0 0 -- --
1974 3 14 05 -31.9 158.8 997 0 0 -- --
< Cyclone 197414 1974 Season Cyclone 197416 >

Help